UAL147 EGLL-KIAD
Flight info
| Callsign | UAL147 |
|---|---|
| Flight time | N/A |
| Altitude | 36000 |
| Route | CPT L9 BUCGO DCT FELCA DCT OFSOX DCT BANBA DCT TOBOR/M085F380 NATC ELSIR/N0470F380 N402C ALLEX/N0477F400 DCT KAYCC DCT KYLOH DCT BAF HYPER9 |
| Aircraft | B789/H-SDE1E2E3FGHIJ2J3J4J5M1RWXY/LB1D1 |
Departure
| Time | 2026-05-06 11:03 |
|---|---|
| Airport | London Heathrow Airport (EGLL) |
Arrival
| Time | N/A |
|---|---|
| Airport | Washington Dulles International Airport (KIAD) |
| Time | Latitude | Longitude | Altitude | Speed | Heading |
|---|---|---|---|---|---|
| 2026-05-06 10:42 | 51.47414 | -0.44423 | 97 ft | 0 kts | 89° |
| 2026-05-06 10:47 | 51.47414 | -0.44429 | 97 ft | 2 kts | 89° |
| 2026-05-06 10:48 | 51.47414 | -0.44454 | 97 ft | 2 kts | 82° |
| 2026-05-06 10:48 | 51.47413 | -0.44469 | 97 ft | 0 kts | 74° |
| 2026-05-06 10:48 | 51.47409 | -0.44483 | 98 ft | 2 kts | 68° |
| 2026-05-06 10:48 | 51.47403 | -0.44505 | 98 ft | 2 kts | 58° |
| 2026-05-06 10:49 | 51.47398 | -0.44527 | 98 ft | 2 kts | 101° |
| 2026-05-06 10:49 | 51.47404 | -0.44549 | 98 ft | 2 kts | 137° |
| 2026-05-06 10:49 | 51.47417 | -0.44562 | 98 ft | 2 kts | 174° |
| 2026-05-06 10:49 | 51.47432 | -0.44561 | 98 ft | 1 kts | 184° |
| 2026-05-06 10:50 | 51.47436 | -0.44561 | 98 ft | 0 kts | 183° |
| 2026-05-06 10:52 | 51.47432 | -0.44561 | 97 ft | 2 kts | 183° |
| 2026-05-06 10:53 | 51.47396 | -0.44563 | 98 ft | 8 kts | 180° |
| 2026-05-06 10:53 | 51.47319 | -0.44561 | 99 ft | 14 kts | 179° |
| 2026-05-06 10:53 | 51.47198 | -0.44558 | 100 ft | 20 kts | 180° |
| 2026-05-06 10:53 | 51.47044 | -0.44556 | 102 ft | 23 kts | 180° |
| 2026-05-06 10:54 | 51.46875 | -0.44555 | 100 ft | 24 kts | 180° |
| 2026-05-06 10:54 | 51.46767 | -0.44580 | 97 ft | 9 kts | 227° |
| 2026-05-06 10:54 | 51.46753 | -0.44671 | 98 ft | 7 kts | 266° |
| 2026-05-06 10:54 | 51.46751 | -0.44762 | 99 ft | 9 kts | 271° |
| 2026-05-06 10:55 | 51.46751 | -0.44866 | 99 ft | 12 kts | 271° |
| 2026-05-06 10:55 | 51.46751 | -0.45026 | 101 ft | 14 kts | 270° |
| 2026-05-06 10:55 | 51.46749 | -0.45242 | 99 ft | 24 kts | 270° |
| 2026-05-06 10:55 | 51.46750 | -0.45564 | 94 ft | 33 kts | 271° |
| 2026-05-06 10:56 | 51.46749 | -0.45943 | 89 ft | 35 kts | 270° |
| 2026-05-06 10:56 | 51.46750 | -0.46336 | 86 ft | 35 kts | 270° |
| 2026-05-06 10:56 | 51.46747 | -0.46708 | 83 ft | 30 kts | 270° |
| 2026-05-06 10:56 | 51.46747 | -0.47039 | 84 ft | 29 kts | 270° |
| 2026-05-06 10:57 | 51.46746 | -0.47354 | 84 ft | 28 kts | 270° |
| 2026-05-06 10:57 | 51.46744 | -0.47660 | 86 ft | 26 kts | 270° |
| 2026-05-06 10:57 | 51.46743 | -0.47955 | 86 ft | 25 kts | 269° |
| 2026-05-06 10:57 | 51.46742 | -0.48240 | 86 ft | 25 kts | 270° |
| 2026-05-06 10:58 | 51.46741 | -0.48531 | 83 ft | 25 kts | 270° |
| 2026-05-06 10:58 | 51.46714 | -0.48732 | 84 ft | 15 kts | 210° |
| 2026-05-06 10:58 | 51.46635 | -0.48753 | 83 ft | 0 kts | 190° |
| 2026-05-06 10:59 | 51.46631 | -0.48754 | 83 ft | 1 kts | 191° |
| 2026-05-06 10:59 | 51.46613 | -0.48763 | 83 ft | 2 kts | 197° |
| 2026-05-06 10:59 | 51.46609 | -0.48765 | 83 ft | 0 kts | 197° |
| 2026-05-06 10:59 | 51.46605 | -0.48767 | 83 ft | 2 kts | 197° |
| 2026-05-06 11:00 | 51.46570 | -0.48783 | 83 ft | 7 kts | 196° |
| 2026-05-06 11:00 | 51.46503 | -0.48762 | 83 ft | 12 kts | 142° |
| 2026-05-06 11:00 | 51.46478 | -0.48626 | 83 ft | 0 kts | 91° |
| 2026-05-06 11:00 | 51.46478 | -0.48627 | 83 ft | 0 kts | 91° |
| 2026-05-06 11:02 | 51.46478 | -0.48454 | 83 ft | 48 kts | 89° |
| 2026-05-06 11:02 | 51.46482 | -0.47477 | 86 ft | 121 kts | 89° |
| 2026-05-06 11:02 | 51.46489 | -0.45764 | 87 ft | 182 kts | 89° |
| 2026-05-06 11:02 | 51.46476 | -0.43540 | 438 ft | 209 kts | 88° |
| 2026-05-06 11:03 | 51.46439 | -0.41316 | 1472 ft | 199 kts | 91° |
| 2026-05-06 11:03 | 51.45969 | -0.39150 | 2065 ft | 218 kts | 127° |
| 2026-05-06 11:03 | 51.44625 | -0.37927 | 2451 ft | 230 kts | 178° |
| 2026-05-06 11:03 | 51.43106 | -0.38417 | 3300 ft | 219 kts | 215° |
| 2026-05-06 11:04 | 51.42178 | -0.40131 | 4003 ft | 206 kts | 252° |
| 2026-05-06 11:04 | 51.42120 | -0.42480 | 4141 ft | 221 kts | 296° |
| 2026-05-06 11:04 | 51.43105 | -0.44233 | 4690 ft | 225 kts | 338° |
| 2026-05-06 11:04 | 51.44539 | -0.44638 | 5534 ft | 220 kts | 349° |
| 2026-05-06 11:05 | 51.45880 | -0.45626 | 6064 ft | 222 kts | 311° |
| 2026-05-06 11:05 | 51.46450 | -0.47874 | 6789 ft | 226 kts | 271° |
| 2026-05-06 11:05 | 51.46086 | -0.50318 | 7602 ft | 226 kts | 253° |
| 2026-05-06 11:05 | 51.45565 | -0.52657 | 8316 ft | 227 kts | 255° |
| 2026-05-06 11:06 | 51.45258 | -0.55103 | 8880 ft | 227 kts | 279° |
| 2026-05-06 11:06 | 51.45509 | -0.57614 | 9565 ft | 227 kts | 278° |
| 2026-05-06 11:06 | 51.45652 | -0.60171 | 10041 ft | 238 kts | 273° |
| 2026-05-06 11:06 | 51.45713 | -0.62988 | 10057 ft | 267 kts | 271° |
| 2026-05-06 11:07 | 51.45719 | -0.66147 | 10130 ft | 294 kts | 270° |
| 2026-05-06 11:07 | 51.45685 | -0.69553 | 10264 ft | 317 kts | 268° |
| 2026-05-06 11:07 | 51.45631 | -0.72962 | 10903 ft | 323 kts | 268° |
| 2026-05-06 11:07 | 51.45555 | -0.76659 | 11749 ft | 323 kts | 266° |
| 2026-05-06 11:08 | 51.45470 | -0.80305 | 12178 ft | 336 kts | 266° |
| 2026-05-06 11:08 | 51.45367 | -0.84193 | 12190 ft | 360 kts | 266° |
| 2026-05-06 11:08 | 51.45421 | -0.88311 | 12271 ft | 383 kts | 276° |
| 2026-05-06 11:08 | 51.45881 | -0.92584 | 12963 ft | 388 kts | 276° |
| 2026-05-06 11:09 | 51.46319 | -0.96907 | 13844 ft | 387 kts | 278° |
| 2026-05-06 11:09 | 51.46804 | -1.01142 | 14639 ft | 388 kts | 277° |
| 2026-05-06 11:09 | 51.47269 | -1.05281 | 15350 ft | 389 kts | 278° |
| 2026-05-06 11:09 | 51.47764 | -1.09647 | 15727 ft | 400 kts | 277° |
| 2026-05-06 11:10 | 51.48267 | -1.14119 | 15994 ft | 412 kts | 277° |
| 2026-05-06 11:10 | 51.48865 | -1.18667 | 16693 ft | 417 kts | 284° |
| 2026-05-06 11:10 | 51.50296 | -1.22785 | 17370 ft | 431 kts | 303° |
| 2026-05-06 11:10 | 51.52318 | -1.26374 | 18015 ft | 437 kts | 308° |
| 2026-05-06 11:11 | 51.54454 | -1.29765 | 18565 ft | 442 kts | 309° |
| 2026-05-06 11:11 | 51.56660 | -1.33194 | 19129 ft | 446 kts | 309° |
| 2026-05-06 11:11 | 51.58881 | -1.36611 | 19690 ft | 448 kts | 309° |
| 2026-05-06 11:11 | 51.60827 | -1.40421 | 19904 ft | 445 kts | 295° |
| 2026-05-06 11:12 | 51.62345 | -1.44845 | 20153 ft | 454 kts | 295° |
| 2026-05-06 11:12 | 51.63919 | -1.49279 | 20715 ft | 455 kts | 293° |
| 2026-05-06 11:12 | 51.65428 | -1.53736 | 21297 ft | 457 kts | 294° |
| 2026-05-06 11:12 | 51.66942 | -1.58212 | 21828 ft | 459 kts | 292° |
| 2026-05-06 11:13 | 51.68469 | -1.62770 | 22341 ft | 461 kts | 292° |
| 2026-05-06 11:13 | 51.69830 | -1.67447 | 22474 ft | 462 kts | 281° |
| 2026-05-06 11:13 | 51.70340 | -1.72474 | 23055 ft | 458 kts | 275° |
| 2026-05-06 11:13 | 51.70884 | -1.77554 | 23588 ft | 459 kts | 275° |
| 2026-05-06 11:14 | 51.71301 | -1.82609 | 24080 ft | 460 kts | 274° |
| 2026-05-06 11:14 | 51.71725 | -1.87683 | 24716 ft | 458 kts | 273° |
| 2026-05-06 11:14 | 51.72116 | -1.92830 | 25247 ft | 458 kts | 273° |
| 2026-05-06 11:14 | 51.72499 | -1.97942 | 25664 ft | 460 kts | 272° |
| 2026-05-06 11:15 | 51.72873 | -2.03092 | 26024 ft | 461 kts | 272° |
| 2026-05-06 11:15 | 51.73243 | -2.08277 | 26224 ft | 462 kts | 272° |
| 2026-05-06 11:15 | 51.73604 | -2.13408 | 26308 ft | 463 kts | 272° |
| 2026-05-06 11:15 | 51.73963 | -2.18554 | 26336 ft | 463 kts | 272° |
| 2026-05-06 11:16 | 51.74320 | -2.23679 | 27185 ft | 449 kts | 272° |
| 2026-05-06 11:16 | 51.74657 | -2.28438 | 28856 ft | 423 kts | 272° |
| 2026-05-06 11:16 | 51.74973 | -2.33041 | 29869 ft | 410 kts | 271° |
| 2026-05-06 11:16 | 51.75279 | -2.37643 | 29997 ft | 416 kts | 271° |
| 2026-05-06 11:17 | 51.75587 | -2.42305 | 30206 ft | 420 kts | 271° |
| 2026-05-06 11:17 | 51.75897 | -2.46960 | 30641 ft | 419 kts | 271° |
| 2026-05-06 11:17 | 51.76209 | -2.51661 | 31166 ft | 416 kts | 271° |
| 2026-05-06 11:17 | 51.76513 | -2.56273 | 31670 ft | 412 kts | 271° |
| 2026-05-06 11:18 | 51.76815 | -2.60886 | 32139 ft | 410 kts | 271° |
| 2026-05-06 11:18 | 51.77107 | -2.65368 | 32569 ft | 407 kts | 270° |
| 2026-05-06 11:18 | 51.77399 | -2.69917 | 33046 ft | 404 kts | 270° |
| 2026-05-06 11:18 | 51.77688 | -2.74382 | 33486 ft | 402 kts | 270° |
| 2026-05-06 11:19 | 51.77977 | -2.78903 | 33909 ft | 399 kts | 270° |
| 2026-05-06 11:19 | 51.78260 | -2.83342 | 34294 ft | 398 kts | 270° |
| 2026-05-06 11:19 | 51.78535 | -2.87721 | 34610 ft | 397 kts | 270° |
| 2026-05-06 11:19 | 51.78816 | -2.92191 | 34907 ft | 397 kts | 270° |
| 2026-05-06 11:20 | 51.79094 | -2.96639 | 35183 ft | 397 kts | 269° |
| 2026-05-06 11:20 | 51.79642 | -3.05524 | 35429 ft | 403 kts | 269° |
| 2026-05-06 11:20 | 51.79918 | -3.10030 | 35664 ft | 403 kts | 269° |
| 2026-05-06 11:21 | 51.80193 | -3.14542 | 35920 ft | 402 kts | 269° |
| 2026-05-06 11:21 | 51.80729 | -3.23412 | 36021 ft | 394 kts | 269° |
| 2026-05-06 11:22 | 51.81252 | -3.32279 | 36023 ft | 401 kts | 269° |
| 2026-05-06 11:22 | 51.81779 | -3.41265 | 36016 ft | 401 kts | 269° |
| 2026-05-06 11:23 | 51.82299 | -3.50235 | 36015 ft | 400 kts | 269° |
| 2026-05-06 11:23 | 51.83257 | -3.59158 | 36019 ft | 406 kts | 274° |
| 2026-05-06 11:24 | 51.84325 | -3.67654 | 36028 ft | 406 kts | 274° |
| 2026-05-06 11:24 | 51.85465 | -3.76612 | 36027 ft | 405 kts | 274° |
| 2026-05-06 11:25 | 51.86610 | -3.85575 | 36027 ft | 405 kts | 274° |
| 2026-05-06 11:25 | 51.87743 | -3.94482 | 36026 ft | 405 kts | 274° |
| 2026-05-06 11:26 | 51.88869 | -4.03392 | 36024 ft | 405 kts | 274° |
| 2026-05-06 11:26 | 51.89993 | -4.12333 | 36023 ft | 405 kts | 274° |
| 2026-05-06 11:27 | 51.91112 | -4.21291 | 36026 ft | 405 kts | 274° |
| 2026-05-06 11:27 | 51.92221 | -4.30223 | 36031 ft | 405 kts | 274° |
| 2026-05-06 11:28 | 51.93323 | -4.39161 | 36036 ft | 405 kts | 274° |
| 2026-05-06 11:28 | 51.94425 | -4.48161 | 36040 ft | 405 kts | 274° |
| 2026-05-06 11:29 | 51.95520 | -4.57161 | 36042 ft | 405 kts | 274° |
| 2026-05-06 11:29 | 51.96598 | -4.66090 | 36046 ft | 405 kts | 273° |
| 2026-05-06 11:30 | 51.97678 | -4.75088 | 36057 ft | 404 kts | 273° |
| 2026-05-06 11:30 | 51.98771 | -4.84246 | 36055 ft | 405 kts | 273° |
| 2026-05-06 11:31 | 51.99858 | -4.93401 | 36055 ft | 406 kts | 272° |
| 2026-05-06 11:31 | 52.00934 | -5.02553 | 36053 ft | 406 kts | 272° |
| 2026-05-06 11:32 | 52.02005 | -5.11739 | 36052 ft | 407 kts | 272° |
| 2026-05-06 11:32 | 52.02548 | -5.20947 | 36074 ft | 392 kts | 259° |
| 2026-05-06 11:33 | 52.02057 | -5.29960 | 36055 ft | 394 kts | 259° |
| 2026-05-06 11:33 | 52.01500 | -5.38934 | 36047 ft | 393 kts | 259° |
| 2026-05-06 11:34 | 52.00890 | -5.47988 | 36045 ft | 393 kts | 259° |
| 2026-05-06 11:34 | 52.00265 | -5.56932 | 36044 ft | 393 kts | 259° |
| 2026-05-06 11:35 | 51.99620 | -5.65945 | 36046 ft | 393 kts | 258° |
| 2026-05-06 11:35 | 51.98964 | -5.74952 | 36058 ft | 393 kts | 258° |
| 2026-05-06 11:36 | 51.98305 | -5.83893 | 36057 ft | 393 kts | 258° |
| 2026-05-06 11:36 | 51.97638 | -5.92847 | 36055 ft | 393 kts | 258° |
| 2026-05-06 11:37 | 51.96958 | -6.01859 | 36054 ft | 393 kts | 258° |
| 2026-05-06 11:37 | 51.96278 | -6.10796 | 36052 ft | 393 kts | 258° |
| 2026-05-06 11:38 | 51.95583 | -6.19808 | 36050 ft | 393 kts | 258° |
| 2026-05-06 11:38 | 51.95511 | -6.24301 | 36016 ft | 403 kts | 270° |
| 2026-05-06 11:38 | 51.95939 | -6.28930 | 36070 ft | 405 kts | 270° |
| 2026-05-06 11:39 | 51.96759 | -6.38131 | 36046 ft | 405 kts | 270° |
| 2026-05-06 11:39 | 51.97631 | -6.47356 | 36045 ft | 405 kts | 271° |
| 2026-05-06 11:40 | 51.98515 | -6.56526 | 36044 ft | 405 kts | 271° |
| 2026-05-06 11:40 | 51.99401 | -6.65709 | 36044 ft | 405 kts | 270° |
| 2026-05-06 11:41 | 52.00283 | -6.74887 | 36058 ft | 404 kts | 271° |
| 2026-05-06 11:41 | 52.01158 | -6.84044 | 36057 ft | 404 kts | 271° |
| 2026-05-06 11:42 | 52.02029 | -6.93218 | 36056 ft | 404 kts | 270° |
| 2026-05-06 11:42 | 52.02892 | -7.02378 | 36054 ft | 405 kts | 270° |
| 2026-05-06 11:43 | 52.03756 | -7.11625 | 36053 ft | 405 kts | 270° |
| 2026-05-06 11:43 | 52.04606 | -7.20821 | 36052 ft | 406 kts | 270° |
| 2026-05-06 11:44 | 52.05873 | -7.34704 | 36051 ft | 406 kts | 270° |
| 2026-05-06 11:44 | 52.06708 | -7.43937 | 36049 ft | 406 kts | 270° |
| 2026-05-06 11:45 | 52.07536 | -7.53182 | 36047 ft | 406 kts | 270° |
| 2026-05-06 11:45 | 52.08360 | -7.62479 | 36046 ft | 406 kts | 270° |
| 2026-05-06 11:46 | 52.09148 | -7.71429 | 36060 ft | 406 kts | 269° |
| 2026-05-06 11:46 | 52.09947 | -7.80606 | 36048 ft | 405 kts | 269° |
| 2026-05-06 11:47 | 52.10736 | -7.89720 | 36022 ft | 406 kts | 269° |
| 2026-05-06 11:47 | 52.11521 | -7.98908 | 36013 ft | 406 kts | 269° |
| 2026-05-06 11:48 | 52.12300 | -8.08085 | 36012 ft | 406 kts | 269° |
| 2026-05-06 11:48 | 52.13072 | -8.17283 | 36012 ft | 406 kts | 269° |
| 2026-05-06 11:49 | 52.13839 | -8.26491 | 36009 ft | 406 kts | 269° |
| 2026-05-06 11:49 | 52.14602 | -8.35774 | 36008 ft | 406 kts | 269° |
| 2026-05-06 11:50 | 52.15359 | -8.45057 | 36007 ft | 406 kts | 269° |
| 2026-05-06 11:50 | 52.16104 | -8.54276 | 36005 ft | 406 kts | 269° |
| 2026-05-06 11:51 | 52.16842 | -8.63521 | 36004 ft | 406 kts | 269° |
| 2026-05-06 11:51 | 52.17575 | -8.72803 | 36018 ft | 406 kts | 268° |
| 2026-05-06 11:52 | 52.18294 | -8.81978 | 36022 ft | 405 kts | 269° |
| 2026-05-06 11:52 | 52.19003 | -8.91127 | 36022 ft | 405 kts | 268° |
| 2026-05-06 11:53 | 52.19703 | -9.00226 | 36018 ft | 405 kts | 268° |
| 2026-05-06 11:53 | 52.20396 | -9.09331 | 36015 ft | 404 kts | 268° |
| 2026-05-06 11:54 | 52.21075 | -9.18391 | 36012 ft | 404 kts | 268° |
| 2026-05-06 11:54 | 52.21725 | -9.27168 | 36009 ft | 403 kts | 268° |
| 2026-05-06 11:55 | 52.22413 | -9.36533 | 36007 ft | 403 kts | 268° |
| 2026-05-06 11:55 | 52.23077 | -9.45659 | 36007 ft | 403 kts | 268° |
| 2026-05-06 11:56 | 52.23732 | -9.54712 | 36008 ft | 404 kts | 268° |
| 2026-05-06 11:56 | 52.24379 | -9.63846 | 36003 ft | 403 kts | 268° |
| 2026-05-06 11:57 | 52.25018 | -9.72916 | 36019 ft | 404 kts | 268° |
| 2026-05-06 11:57 | 52.25653 | -9.82042 | 36018 ft | 402 kts | 267° |
| 2026-05-06 11:58 | 52.26275 | -9.91107 | 36016 ft | 402 kts | 268° |
| 2026-05-06 11:58 | 52.26894 | -10.00186 | 36015 ft | 403 kts | 267° |
| 2026-05-06 11:59 | 52.27510 | -10.09333 | 36014 ft | 404 kts | 267° |
| 2026-05-06 11:59 | 52.28115 | -10.18467 | 36014 ft | 403 kts | 268° |
| 2026-05-06 12:00 | 52.28711 | -10.27525 | 36012 ft | 402 kts | 267° |
| 2026-05-06 12:00 | 52.29304 | -10.36681 | 36008 ft | 403 kts | 268° |
| 2026-05-06 12:01 | 52.29892 | -10.45836 | 36009 ft | 404 kts | 267° |
| 2026-05-06 12:01 | 52.30468 | -10.54913 | 36008 ft | 403 kts | 267° |
| 2026-05-06 12:02 | 52.31040 | -10.64089 | 36007 ft | 404 kts | 268° |
| 2026-05-06 12:02 | 52.31599 | -10.73173 | 36019 ft | 402 kts | 267° |
| 2026-05-06 12:03 | 52.32155 | -10.82304 | 36018 ft | 403 kts | 267° |
| 2026-05-06 12:03 | 52.32705 | -10.91510 | 36021 ft | 409 kts | 267° |
| 2026-05-06 12:04 | 52.33255 | -11.00868 | 36016 ft | 414 kts | 268° |
| 2026-05-06 12:04 | 52.33809 | -11.10298 | 36015 ft | 417 kts | 268° |
| 2026-05-06 12:05 | 52.34359 | -11.19749 | 36014 ft | 415 kts | 268° |
| 2026-05-06 12:05 | 52.34900 | -11.29216 | 36014 ft | 415 kts | 268° |
| 2026-05-06 12:06 | 52.35432 | -11.38661 | 36014 ft | 416 kts | 268° |
| 2026-05-06 12:06 | 52.35949 | -11.48060 | 36009 ft | 415 kts | 268° |
| 2026-05-06 12:07 | 52.36466 | -11.57499 | 36005 ft | 416 kts | 268° |
| 2026-05-06 12:07 | 52.36971 | -11.66985 | 36017 ft | 415 kts | 267° |
| 2026-05-06 12:08 | 52.37469 | -11.76360 | 36019 ft | 414 kts | 267° |
| 2026-05-06 12:08 | 52.37965 | -11.85819 | 36021 ft | 416 kts | 267° |
| 2026-05-06 12:09 | 52.38448 | -11.95269 | 36019 ft | 416 kts | 267° |
| 2026-05-06 12:09 | 52.38921 | -12.04680 | 36018 ft | 414 kts | 267° |
| 2026-05-06 12:10 | 52.39388 | -12.14105 | 36015 ft | 414 kts | 267° |
| 2026-05-06 12:10 | 52.39848 | -12.23481 | 36016 ft | 414 kts | 267° |
| 2026-05-06 12:11 | 52.40299 | -12.32906 | 36010 ft | 414 kts | 267° |
| 2026-05-06 12:11 | 52.40746 | -12.42377 | 36011 ft | 413 kts | 268° |
| 2026-05-06 12:12 | 52.41182 | -12.51737 | 36013 ft | 414 kts | 267° |
| 2026-05-06 12:12 | 52.41615 | -12.61233 | 36010 ft | 415 kts | 268° |
| 2026-05-06 12:13 | 52.42033 | -12.70629 | 36025 ft | 413 kts | 267° |
| 2026-05-06 12:13 | 52.42450 | -12.80026 | 36020 ft | 414 kts | 266° |
| 2026-05-06 12:14 | 52.42859 | -12.89498 | 36021 ft | 413 kts | 266° |
| 2026-05-06 12:14 | 52.43257 | -12.98929 | 36018 ft | 414 kts | 266° |
| 2026-05-06 12:15 | 52.43644 | -13.08436 | 36016 ft | 420 kts | 268° |
| 2026-05-06 12:15 | 52.44033 | -13.18076 | 36016 ft | 425 kts | 268° |
| 2026-05-06 12:16 | 52.44427 | -13.27779 | 36017 ft | 427 kts | 268° |
| 2026-05-06 12:16 | 52.44809 | -13.37462 | 36012 ft | 426 kts | 269° |
| 2026-05-06 12:17 | 52.45185 | -13.47198 | 36016 ft | 427 kts | 268° |
| 2026-05-06 12:17 | 52.45553 | -13.56945 | 36014 ft | 427 kts | 268° |
| 2026-05-06 12:18 | 52.45906 | -13.66650 | 36015 ft | 426 kts | 268° |
| 2026-05-06 12:18 | 52.46257 | -13.76395 | 36024 ft | 427 kts | 268° |
| 2026-05-06 12:19 | 52.46596 | -13.86132 | 36020 ft | 425 kts | 268° |
| 2026-05-06 12:19 | 52.46928 | -13.95847 | 36020 ft | 426 kts | 268° |
| 2026-05-06 12:20 | 52.47252 | -14.05549 | 36015 ft | 426 kts | 268° |
| 2026-05-06 12:20 | 52.47570 | -14.15315 | 36019 ft | 426 kts | 268° |
| 2026-05-06 12:21 | 52.47877 | -14.25031 | 36018 ft | 426 kts | 268° |
| 2026-05-06 12:21 | 52.48181 | -14.34805 | 36014 ft | 427 kts | 268° |
| 2026-05-06 12:22 | 52.48472 | -14.44501 | 36013 ft | 427 kts | 268° |
| 2026-05-06 12:22 | 52.48755 | -14.54213 | 36013 ft | 426 kts | 268° |
| 2026-05-06 12:23 | 52.49032 | -14.63984 | 36010 ft | 426 kts | 268° |
| 2026-05-06 12:23 | 52.49300 | -14.73672 | 36021 ft | 426 kts | 267° |
| 2026-05-06 12:24 | 52.49558 | -14.83353 | 36021 ft | 426 kts | 267° |
| 2026-05-06 12:24 | 52.49809 | -14.93093 | 36022 ft | 426 kts | 268° |
| 2026-05-06 12:25 | 52.50348 | -15.02823 | 36017 ft | 435 kts | 276° |
| 2026-05-06 12:25 | 52.51534 | -15.12674 | 36022 ft | 439 kts | 276° |
| 2026-05-06 12:26 | 52.52712 | -15.22466 | 36017 ft | 438 kts | 276° |
| 2026-05-06 12:26 | 52.53896 | -15.32336 | 36016 ft | 438 kts | 276° |
| 2026-05-06 12:27 | 52.55064 | -15.42162 | 36016 ft | 438 kts | 276° |
| 2026-05-06 12:27 | 52.56229 | -15.52025 | 36015 ft | 438 kts | 276° |
| 2026-05-06 12:28 | 52.57388 | -15.61920 | 36012 ft | 438 kts | 276° |
| 2026-05-06 12:28 | 52.58531 | -15.71750 | 36024 ft | 438 kts | 276° |
| 2026-05-06 12:29 | 52.59663 | -15.81556 | 36022 ft | 438 kts | 275° |
| 2026-05-06 12:29 | 52.60796 | -15.91442 | 36022 ft | 438 kts | 275° |
| 2026-05-06 12:30 | 52.61911 | -16.01263 | 36020 ft | 438 kts | 275° |
| 2026-05-06 12:30 | 52.63028 | -16.11155 | 36021 ft | 438 kts | 276° |
| 2026-05-06 12:31 | 52.64131 | -16.21039 | 36018 ft | 438 kts | 275° |
| 2026-05-06 12:31 | 52.65230 | -16.30928 | 36016 ft | 438 kts | 276° |
| 2026-05-06 12:32 | 52.66318 | -16.40792 | 36017 ft | 438 kts | 275° |
| 2026-05-06 12:32 | 52.67394 | -16.50675 | 36015 ft | 438 kts | 276° |
| 2026-05-06 12:33 | 52.68464 | -16.60535 | 36015 ft | 438 kts | 276° |
| 2026-05-06 12:33 | 52.69527 | -16.70439 | 36025 ft | 438 kts | 275° |